<?xml version="1.0" encoding="UTF-8" standalone="no" ?>
<gpx xmlns="http://www.topografix.com/GPX/1/1" xmlns:xsi="http://www.w3.org/2001/XMLSchema-instance" xsi:schemaLocation="http://www.topografix.com/GPX/1/1 http://www.topografix.com/GPX/1/1/gpx.xsd" version="1.1" creator="VisuGPX - https://www.visugpx.com">
  <metadata>
    <name>CBN 2017 10 km</name>
    <desc><![CDATA[parcours du 10 km 
nnnnnnnnnnnnnnnnnnnnnnnnnnnnnnnnnnnnnnnnnnnnnnnnnnnnnnnnnnnnnnnnnnnnnnnnnnnnnnnnnnnnnnnnnnnnnnnnnnnnnnnnnnnnnnnnnnnnn]]></desc>
  </metadata>
  <trk>
    <name><![CDATA[Gometz-la-Ville Course à pied]]></name>
    <trkseg>
      <trkpt lat="48.6693" lon="2.12129">
        <ele>158.39999389648</ele>
        <time>2017-05-25T06:11:12.000Z</time>
      </trkpt>
      <trkpt lat="48.66913" lon="2.12149">
        <ele>159.60000610352</ele>
        <time>2017-05-25T06:11:19.000Z</time>
      </trkpt>
      <trkpt lat="48.66898" lon="2.12171">
        <ele>161.60000610352</ele>
        <time>2017-05-25T06:11:25.000Z</time>
      </trkpt>
      <trkpt lat="48.66892" lon="2.1219">
        <ele>162.80000305176</ele>
        <time>2017-05-25T06:11:29.000Z</time>
      </trkpt>
      <trkpt lat="48.66899" lon="2.12219">
        <ele>162.60000610352</ele>
        <time>2017-05-25T06:11:35.000Z</time>
      </trkpt>
      <trkpt lat="48.66907" lon="2.12249">
        <ele>162.19999694824</ele>
        <time>2017-05-25T06:11:41.000Z</time>
      </trkpt>
      <trkpt lat="48.66913" lon="2.12278">
        <ele>162.19999694824</ele>
        <time>2017-05-25T06:11:47.000Z</time>
      </trkpt>
      <trkpt lat="48.6692" lon="2.12308">
        <ele>162.39999389648</ele>
        <time>2017-05-25T06:11:53.000Z</time>
      </trkpt>
      <trkpt lat="48.66926" lon="2.12339">
        <ele>161.80000305176</ele>
        <time>2017-05-25T06:11:59.000Z</time>
      </trkpt>
      <trkpt lat="48.66924" lon="2.12369">
        <ele>162.19999694824</ele>
        <time>2017-05-25T06:12:05.000Z</time>
      </trkpt>
      <trkpt lat="48.66929" lon="2.12396">
        <ele>162.60000610352</ele>
        <time>2017-05-25T06:12:11.000Z</time>
      </trkpt>
      <trkpt lat="48.66939" lon="2.12424">
        <ele>163</ele>
        <time>2017-05-25T06:12:17.000Z</time>
      </trkpt>
      <trkpt lat="48.66947" lon="2.12453">
        <ele>163</ele>
        <time>2017-05-25T06:12:23.000Z</time>
      </trkpt>
      <trkpt lat="48.66954" lon="2.12482">
        <ele>163</ele>
        <time>2017-05-25T06:12:29.000Z</time>
      </trkpt>
      <trkpt lat="48.66962" lon="2.12511">
        <ele>163</ele>
        <time>2017-05-25T06:12:35.000Z</time>
      </trkpt>
      <trkpt lat="48.66965" lon="2.12516">
        <ele>163</ele>
        <time>2017-05-25T06:12:37.000Z</time>
      </trkpt>
      <trkpt lat="48.66973" lon="2.12494">
        <ele>163</ele>
        <time>2017-05-25T06:12:43.000Z</time>
      </trkpt>
      <trkpt lat="48.66983" lon="2.12471">
        <ele>163</ele>
        <time>2017-05-25T06:12:49.000Z</time>
      </trkpt>
      <trkpt lat="48.66993" lon="2.12443">
        <ele>163</ele>
        <time>2017-05-25T06:12:55.000Z</time>
      </trkpt>
      <trkpt lat="48.67002" lon="2.12416">
        <ele>163</ele>
        <time>2017-05-25T06:13:01.000Z</time>
      </trkpt>
      <trkpt lat="48.67003" lon="2.12408">
        <ele>163</ele>
        <time>2017-05-25T06:13:03.000Z</time>
      </trkpt>
      <trkpt lat="48.66988" lon="2.12389">
        <ele>162.80000305176</ele>
        <time>2017-05-25T06:13:09.000Z</time>
      </trkpt>
      <trkpt lat="48.66978" lon="2.12367">
        <ele>162.39999389648</ele>
        <time>2017-05-25T06:13:14.000Z</time>
      </trkpt>
      <trkpt lat="48.66965" lon="2.12341">
        <ele>162</ele>
        <time>2017-05-25T06:13:20.000Z</time>
      </trkpt>
      <trkpt lat="48.66951" lon="2.12316">
        <ele>161.60000610352</ele>
        <time>2017-05-25T06:13:26.000Z</time>
      </trkpt>
      <trkpt lat="48.66939" lon="2.1229">
        <ele>161.60000610352</ele>
        <time>2017-05-25T06:13:32.000Z</time>
      </trkpt>
      <trkpt lat="48.66938" lon="2.12265">
        <ele>161.19999694824</ele>
        <time>2017-05-25T06:13:37.000Z</time>
      </trkpt>
      <trkpt lat="48.66949" lon="2.12243">
        <ele>161.19999694824</ele>
        <time>2017-05-25T06:13:42.000Z</time>
      </trkpt>
      <trkpt lat="48.66961" lon="2.12218">
        <ele>160.39999389648</ele>
        <time>2017-05-25T06:13:47.000Z</time>
      </trkpt>
      <trkpt lat="48.66972" lon="2.12195">
        <ele>159.80000305176</ele>
        <time>2017-05-25T06:13:52.000Z</time>
      </trkpt>
      <trkpt lat="48.66985" lon="2.1217">
        <ele>160.39999389648</ele>
        <time>2017-05-25T06:13:58.000Z</time>
      </trkpt>
      <trkpt lat="48.66999" lon="2.12146">
        <ele>161</ele>
        <time>2017-05-25T06:14:04.000Z</time>
      </trkpt>
      <trkpt lat="48.67012" lon="2.12124">
        <ele>161.19999694824</ele>
        <time>2017-05-25T06:14:10.000Z</time>
      </trkpt>
      <trkpt lat="48.67022" lon="2.12101">
        <ele>161.39999389648</ele>
        <time>2017-05-25T06:14:16.000Z</time>
      </trkpt>
      <trkpt lat="48.67015" lon="2.12075">
        <ele>160.80000305176</ele>
        <time>2017-05-25T06:14:22.000Z</time>
      </trkpt>
      <trkpt lat="48.67002" lon="2.12054">
        <ele>160</ele>
        <time>2017-05-25T06:14:28.000Z</time>
      </trkpt>
      <trkpt lat="48.66993" lon="2.12026">
        <ele>158.80000305176</ele>
        <time>2017-05-25T06:14:34.000Z</time>
      </trkpt>
      <trkpt lat="48.66982" lon="2.12">
        <ele>157.80000305176</ele>
        <time>2017-05-25T06:14:40.000Z</time>
      </trkpt>
      <trkpt lat="48.66979" lon="2.11991">
        <ele>157.60000610352</ele>
        <time>2017-05-25T06:14:42.000Z</time>
      </trkpt>
      <trkpt lat="48.66984" lon="2.11962">
        <ele>157.60000610352</ele>
        <time>2017-05-25T06:14:47.000Z</time>
      </trkpt>
      <trkpt lat="48.66999" lon="2.11943">
        <ele>157.39999389648</ele>
        <time>2017-05-25T06:14:52.000Z</time>
      </trkpt>
      <trkpt lat="48.67012" lon="2.1193">
        <ele>157.19999694824</ele>
        <time>2017-05-25T06:14:56.000Z</time>
      </trkpt>
      <trkpt lat="48.67029" lon="2.11932">
        <ele>157.60000610352</ele>
        <time>2017-05-25T06:15:01.000Z</time>
      </trkpt>
      <trkpt lat="48.67047" lon="2.11934">
        <ele>158.19999694824</ele>
        <time>2017-05-25T06:15:06.000Z</time>
      </trkpt>
      <trkpt lat="48.67068" lon="2.11937">
        <ele>159</ele>
        <time>2017-05-25T06:15:12.000Z</time>
      </trkpt>
      <trkpt lat="48.67087" lon="2.11941">
        <ele>159.80000305176</ele>
        <time>2017-05-25T06:15:18.000Z</time>
      </trkpt>
      <trkpt lat="48.67106" lon="2.11952">
        <ele>160.60000610352</ele>
        <time>2017-05-25T06:15:24.000Z</time>
      </trkpt>
      <trkpt lat="48.67123" lon="2.11968">
        <ele>161.19999694824</ele>
        <time>2017-05-25T06:15:30.000Z</time>
      </trkpt>
      <trkpt lat="48.67139" lon="2.11981">
        <ele>161.80000305176</ele>
        <time>2017-05-25T06:15:36.000Z</time>
      </trkpt>
      <trkpt lat="48.67157" lon="2.11994">
        <ele>162.39999389648</ele>
        <time>2017-05-25T06:15:42.000Z</time>
      </trkpt>
      <trkpt lat="48.67174" lon="2.12006">
        <ele>163</ele>
        <time>2017-05-25T06:15:47.000Z</time>
      </trkpt>
      <trkpt lat="48.67191" lon="2.1202">
        <ele>163.80000305176</ele>
        <time>2017-05-25T06:15:53.000Z</time>
      </trkpt>
      <trkpt lat="48.67207" lon="2.12034">
        <ele>165</ele>
        <time>2017-05-25T06:15:59.000Z</time>
      </trkpt>
      <trkpt lat="48.67225" lon="2.12048">
        <ele>166.19999694824</ele>
        <time>2017-05-25T06:16:05.000Z</time>
      </trkpt>
      <trkpt lat="48.6723" lon="2.12057">
        <ele>166.60000610352</ele>
        <time>2017-05-25T06:16:07.000Z</time>
      </trkpt>
      <trkpt lat="48.67229" lon="2.12078">
        <ele>167</ele>
        <time>2017-05-25T06:16:11.000Z</time>
      </trkpt>
      <trkpt lat="48.67222" lon="2.12106">
        <ele>166.80000305176</ele>
        <time>2017-05-25T06:16:16.000Z</time>
      </trkpt>
      <trkpt lat="48.67218" lon="2.12136">
        <ele>167.19999694824</ele>
        <time>2017-05-25T06:16:21.000Z</time>
      </trkpt>
      <trkpt lat="48.67221" lon="2.12164">
        <ele>167.80000305176</ele>
        <time>2017-05-25T06:16:27.000Z</time>
      </trkpt>
      <trkpt lat="48.67225" lon="2.1217">
        <ele>167.60000610352</ele>
        <time>2017-05-25T06:16:29.000Z</time>
      </trkpt>
      <trkpt lat="48.67242" lon="2.12186">
        <ele>167.80000305176</ele>
        <time>2017-05-25T06:16:36.000Z</time>
      </trkpt>
      <trkpt lat="48.67258" lon="2.12201">
        <ele>167.80000305176</ele>
        <time>2017-05-25T06:16:42.000Z</time>
      </trkpt>
      <trkpt lat="48.67275" lon="2.12216">
        <ele>167.60000610352</ele>
        <time>2017-05-25T06:16:48.000Z</time>
      </trkpt>
      <trkpt lat="48.67293" lon="2.12225">
        <ele>167.39999389648</ele>
        <time>2017-05-25T06:16:54.000Z</time>
      </trkpt>
      <trkpt lat="48.67308" lon="2.12226">
        <ele>167.39999389648</ele>
        <time>2017-05-25T06:16:59.000Z</time>
      </trkpt>
      <trkpt lat="48.67318" lon="2.12201">
        <ele>168</ele>
        <time>2017-05-25T06:17:05.000Z</time>
      </trkpt>
      <trkpt lat="48.67334" lon="2.1219">
        <ele>167.80000305176</ele>
        <time>2017-05-25T06:17:11.000Z</time>
      </trkpt>
      <trkpt lat="48.67337" lon="2.12192">
        <ele>167.80000305176</ele>
        <time>2017-05-25T06:17:12.000Z</time>
      </trkpt>
      <trkpt lat="48.67355" lon="2.122">
        <ele>167.60000610352</ele>
        <time>2017-05-25T06:17:17.000Z</time>
      </trkpt>
      <trkpt lat="48.67375" lon="2.12207">
        <ele>167.39999389648</ele>
        <time>2017-05-25T06:17:23.000Z</time>
      </trkpt>
      <trkpt lat="48.67396" lon="2.12209">
        <ele>167.39999389648</ele>
        <time>2017-05-25T06:17:29.000Z</time>
      </trkpt>
      <trkpt lat="48.67412" lon="2.12191">
        <ele>167.60000610352</ele>
        <time>2017-05-25T06:17:35.000Z</time>
      </trkpt>
      <trkpt lat="48.67432" lon="2.12198">
        <ele>167.60000610352</ele>
        <time>2017-05-25T06:17:41.000Z</time>
      </trkpt>
      <trkpt lat="48.67452" lon="2.12205">
        <ele>167.39999389648</ele>
        <time>2017-05-25T06:17:47.000Z</time>
      </trkpt>
      <trkpt lat="48.67471" lon="2.12205">
        <ele>167.39999389648</ele>
        <time>2017-05-25T06:17:53.000Z</time>
      </trkpt>
      <trkpt lat="48.67478" lon="2.12192">
        <ele>167.39999389648</ele>
        <time>2017-05-25T06:17:57.000Z</time>
      </trkpt>
      <trkpt lat="48.6748" lon="2.12189">
        <ele>167.39999389648</ele>
        <time>2017-05-25T06:17:58.000Z</time>
      </trkpt>
      <trkpt lat="48.675" lon="2.12188">
        <ele>167.19999694824</ele>
        <time>2017-05-25T06:18:04.000Z</time>
      </trkpt>
      <trkpt lat="48.67521" lon="2.1218">
        <ele>167</ele>
        <time>2017-05-25T06:18:10.000Z</time>
      </trkpt>
      <trkpt lat="48.67539" lon="2.12177">
        <ele>166.60000610352</ele>
        <time>2017-05-25T06:18:15.000Z</time>
      </trkpt>
      <trkpt lat="48.6756" lon="2.12179">
        <ele>166</ele>
        <time>2017-05-25T06:18:21.000Z</time>
      </trkpt>
      <trkpt lat="48.67577" lon="2.12188">
        <ele>165.60000610352</ele>
        <time>2017-05-25T06:18:26.000Z</time>
      </trkpt>
      <trkpt lat="48.67595" lon="2.12203">
        <ele>165.19999694824</ele>
        <time>2017-05-25T06:18:31.000Z</time>
      </trkpt>
      <trkpt lat="48.67608" lon="2.12221">
        <ele>164.80000305176</ele>
        <time>2017-05-25T06:18:36.000Z</time>
      </trkpt>
      <trkpt lat="48.67624" lon="2.12235">
        <ele>164.60000610352</ele>
        <time>2017-05-25T06:18:41.000Z</time>
      </trkpt>
      <trkpt lat="48.67643" lon="2.12241">
        <ele>164</ele>
        <time>2017-05-25T06:18:47.000Z</time>
      </trkpt>
      <trkpt lat="48.67663" lon="2.12231">
        <ele>163.60000610352</ele>
        <time>2017-05-25T06:18:53.000Z</time>
      </trkpt>
      <trkpt lat="48.67676" lon="2.1221">
        <ele>163.60000610352</ele>
        <time>2017-05-25T06:18:59.000Z</time>
      </trkpt>
      <trkpt lat="48.67685" lon="2.12184">
        <ele>163.80000305176</ele>
        <time>2017-05-25T06:19:05.000Z</time>
      </trkpt>
      <trkpt lat="48.67693" lon="2.12155">
        <ele>164</ele>
        <time>2017-05-25T06:19:11.000Z</time>
      </trkpt>
      <trkpt lat="48.677" lon="2.12128">
        <ele>164.39999389648</ele>
        <time>2017-05-25T06:19:17.000Z</time>
      </trkpt>
      <trkpt lat="48.67709" lon="2.12101">
        <ele>164.80000305176</ele>
        <time>2017-05-25T06:19:23.000Z</time>
      </trkpt>
      <trkpt lat="48.67718" lon="2.12074">
        <ele>163.80000305176</ele>
        <time>2017-05-25T06:19:29.000Z</time>
      </trkpt>
      <trkpt lat="48.67727" lon="2.12047">
        <ele>163.60000610352</ele>
        <time>2017-05-25T06:19:35.000Z</time>
      </trkpt>
      <trkpt lat="48.67736" lon="2.12019">
        <ele>164</ele>
        <time>2017-05-25T06:19:41.000Z</time>
      </trkpt>
      <trkpt lat="48.67745" lon="2.11993">
        <ele>165</ele>
        <time>2017-05-25T06:19:47.000Z</time>
      </trkpt>
      <trkpt lat="48.67755" lon="2.11967">
        <ele>165.60000610352</ele>
        <time>2017-05-25T06:19:53.000Z</time>
      </trkpt>
      <trkpt lat="48.67763" lon="2.1194">
        <ele>166.19999694824</ele>
        <time>2017-05-25T06:19:59.000Z</time>
      </trkpt>
      <trkpt lat="48.67771" lon="2.11912">
        <ele>167</ele>
        <time>2017-05-25T06:20:05.000Z</time>
      </trkpt>
      <trkpt lat="48.67781" lon="2.11885">
        <ele>167.19999694824</ele>
        <time>2017-05-25T06:20:11.000Z</time>
      </trkpt>
      <trkpt lat="48.6779" lon="2.11858">
        <ele>167.39999389648</ele>
        <time>2017-05-25T06:20:17.000Z</time>
      </trkpt>
      <trkpt lat="48.67799" lon="2.11832">
        <ele>167.19999694824</ele>
        <time>2017-05-25T06:20:23.000Z</time>
      </trkpt>
      <trkpt lat="48.67808" lon="2.11805">
        <ele>166.60000610352</ele>
        <time>2017-05-25T06:20:29.000Z</time>
      </trkpt>
      <trkpt lat="48.67817" lon="2.11778">
        <ele>166</ele>
        <time>2017-05-25T06:20:35.000Z</time>
      </trkpt>
      <trkpt lat="48.67827" lon="2.11751">
        <ele>166</ele>
        <time>2017-05-25T06:20:41.000Z</time>
      </trkpt>
      <trkpt lat="48.67836" lon="2.11724">
        <ele>166</ele>
        <time>2017-05-25T06:20:47.000Z</time>
      </trkpt>
      <trkpt lat="48.67844" lon="2.11696">
        <ele>166</ele>
        <time>2017-05-25T06:20:53.000Z</time>
      </trkpt>
      <trkpt lat="48.67854" lon="2.11669">
        <ele>166</ele>
        <time>2017-05-25T06:20:59.000Z</time>
      </trkpt>
      <trkpt lat="48.67864" lon="2.11643">
        <ele>166.39999389648</ele>
        <time>2017-05-25T06:21:05.000Z</time>
      </trkpt>
      <trkpt lat="48.67873" lon="2.11616">
        <ele>166.80000305176</ele>
        <time>2017-05-25T06:21:11.000Z</time>
      </trkpt>
      <trkpt lat="48.67881" lon="2.11587">
        <ele>166.80000305176</ele>
        <time>2017-05-25T06:21:17.000Z</time>
      </trkpt>
      <trkpt lat="48.6789" lon="2.11561">
        <ele>167</ele>
        <time>2017-05-25T06:21:23.000Z</time>
      </trkpt>
      <trkpt lat="48.67894" lon="2.11553">
        <ele>167</ele>
        <time>2017-05-25T06:21:25.000Z</time>
      </trkpt>
      <trkpt lat="48.67904" lon="2.11558">
        <ele>166.80000305176</ele>
        <time>2017-05-25T06:21:29.000Z</time>
      </trkpt>
      <trkpt lat="48.67919" lon="2.11575">
        <ele>166.19999694824</ele>
        <time>2017-05-25T06:21:34.000Z</time>
      </trkpt>
      <trkpt lat="48.67936" lon="2.11593">
        <ele>166.19999694824</ele>
        <time>2017-05-25T06:21:39.000Z</time>
      </trkpt>
      <trkpt lat="48.67949" lon="2.11612">
        <ele>166.19999694824</ele>
        <time>2017-05-25T06:21:44.000Z</time>
      </trkpt>
      <trkpt lat="48.67962" lon="2.11633">
        <ele>166.39999389648</ele>
        <time>2017-05-25T06:21:50.000Z</time>
      </trkpt>
      <trkpt lat="48.67979" lon="2.1165">
        <ele>166.39999389648</ele>
        <time>2017-05-25T06:21:56.000Z</time>
      </trkpt>
      <trkpt lat="48.67995" lon="2.11669">
        <ele>166.19999694824</ele>
        <time>2017-05-25T06:22:02.000Z</time>
      </trkpt>
      <trkpt lat="48.67998" lon="2.11697">
        <ele>165.80000305176</ele>
        <time>2017-05-25T06:22:07.000Z</time>
      </trkpt>
      <trkpt lat="48.67991" lon="2.11724">
        <ele>165.60000610352</ele>
        <time>2017-05-25T06:22:12.000Z</time>
      </trkpt>
      <trkpt lat="48.67983" lon="2.11753">
        <ele>165.80000305176</ele>
        <time>2017-05-25T06:22:18.000Z</time>
      </trkpt>
      <trkpt lat="48.67979" lon="2.11778">
        <ele>166</ele>
        <time>2017-05-25T06:22:24.000Z</time>
      </trkpt>
      <trkpt lat="48.67991" lon="2.11784">
        <ele>165.60000610352</ele>
        <time>2017-05-25T06:22:29.000Z</time>
      </trkpt>
      <trkpt lat="48.68009" lon="2.11788">
        <ele>165.19999694824</ele>
        <time>2017-05-25T06:22:35.000Z</time>
      </trkpt>
      <trkpt lat="48.6803" lon="2.11789">
        <ele>165</ele>
        <time>2017-05-25T06:22:41.000Z</time>
      </trkpt>
      <trkpt lat="48.6805" lon="2.11791">
        <ele>165</ele>
        <time>2017-05-25T06:22:47.000Z</time>
      </trkpt>
      <trkpt lat="48.6807" lon="2.11795">
        <ele>165</ele>
        <time>2017-05-25T06:22:53.000Z</time>
      </trkpt>
      <trkpt lat="48.6809" lon="2.11797">
        <ele>164.80000305176</ele>
        <time>2017-05-25T06:22:59.000Z</time>
      </trkpt>
      <trkpt lat="48.68111" lon="2.11797">
        <ele>164.60000610352</ele>
        <time>2017-05-25T06:23:05.000Z</time>
      </trkpt>
      <trkpt lat="48.6813" lon="2.1181">
        <ele>164.39999389648</ele>
        <time>2017-05-25T06:23:11.000Z</time>
      </trkpt>
      <trkpt lat="48.68139" lon="2.11821">
        <ele>164.39999389648</ele>
        <time>2017-05-25T06:23:14.000Z</time>
      </trkpt>
      <trkpt lat="48.68137" lon="2.11849">
        <ele>164.60000610352</ele>
        <time>2017-05-25T06:23:19.000Z</time>
      </trkpt>
      <trkpt lat="48.68135" lon="2.1186">
        <ele>164.60000610352</ele>
        <time>2017-05-25T06:23:21.000Z</time>
      </trkpt>
      <trkpt lat="48.68127" lon="2.11886">
        <ele>164.19999694824</ele>
        <time>2017-05-25T06:23:26.000Z</time>
      </trkpt>
      <trkpt lat="48.68123" lon="2.11915">
        <ele>164</ele>
        <time>2017-05-25T06:23:32.000Z</time>
      </trkpt>
      <trkpt lat="48.68125" lon="2.11942">
        <ele>164</ele>
        <time>2017-05-25T06:23:37.000Z</time>
      </trkpt>
      <trkpt lat="48.6812" lon="2.11969">
        <ele>164</ele>
        <time>2017-05-25T06:23:42.000Z</time>
      </trkpt>
      <trkpt lat="48.68111" lon="2.11993">
        <ele>164</ele>
        <time>2017-05-25T06:23:47.000Z</time>
      </trkpt>
      <trkpt lat="48.68097" lon="2.12015">
        <ele>164.39999389648</ele>
        <time>2017-05-25T06:23:53.000Z</time>
      </trkpt>
      <trkpt lat="48.6808" lon="2.12022">
        <ele>164.39999389648</ele>
        <time>2017-05-25T06:24:00.000Z</time>
      </trkpt>
      <trkpt lat="48.68076" lon="2.12035">
        <ele>164.60000610352</ele>
        <time>2017-05-25T06:24:03.000Z</time>
      </trkpt>
      <trkpt lat="48.68064" lon="2.1206">
        <ele>164.60000610352</ele>
        <time>2017-05-25T06:24:09.000Z</time>
      </trkpt>
      <trkpt lat="48.68052" lon="2.12086">
        <ele>164</ele>
        <time>2017-05-25T06:24:15.000Z</time>
      </trkpt>
      <trkpt lat="48.68039" lon="2.12109">
        <ele>163.39999389648</ele>
        <time>2017-05-25T06:24:21.000Z</time>
      </trkpt>
      <trkpt lat="48.68026" lon="2.12132">
        <ele>163.19999694824</ele>
        <time>2017-05-25T06:24:27.000Z</time>
      </trkpt>
      <trkpt lat="48.68015" lon="2.12158">
        <ele>163</ele>
        <time>2017-05-25T06:24:33.000Z</time>
      </trkpt>
      <trkpt lat="48.68005" lon="2.12183">
        <ele>163.19999694824</ele>
        <time>2017-05-25T06:24:38.000Z</time>
      </trkpt>
      <trkpt lat="48.67995" lon="2.12208">
        <ele>163.60000610352</ele>
        <time>2017-05-25T06:24:43.000Z</time>
      </trkpt>
      <trkpt lat="48.67985" lon="2.12231">
        <ele>163.60000610352</ele>
        <time>2017-05-25T06:24:48.000Z</time>
      </trkpt>
      <trkpt lat="48.67974" lon="2.12259">
        <ele>163.19999694824</ele>
        <time>2017-05-25T06:24:54.000Z</time>
      </trkpt>
      <trkpt lat="48.6797" lon="2.12287">
        <ele>163</ele>
        <time>2017-05-25T06:24:59.000Z</time>
      </trkpt>
      <trkpt lat="48.67968" lon="2.12314">
        <ele>163</ele>
        <time>2017-05-25T06:25:04.000Z</time>
      </trkpt>
      <trkpt lat="48.67966" lon="2.12341">
        <ele>163</ele>
        <time>2017-05-25T06:25:09.000Z</time>
      </trkpt>
      <trkpt lat="48.67964" lon="2.12373">
        <ele>163</ele>
        <time>2017-05-25T06:25:15.000Z</time>
      </trkpt>
      <trkpt lat="48.67963" lon="2.12405">
        <ele>163</ele>
        <time>2017-05-25T06:25:21.000Z</time>
      </trkpt>
      <trkpt lat="48.6796" lon="2.12432">
        <ele>162.80000305176</ele>
        <time>2017-05-25T06:25:26.000Z</time>
      </trkpt>
      <trkpt lat="48.67959" lon="2.12459">
        <ele>162.39999389648</ele>
        <time>2017-05-25T06:25:31.000Z</time>
      </trkpt>
      <trkpt lat="48.67956" lon="2.12487">
        <ele>162</ele>
        <time>2017-05-25T06:25:36.000Z</time>
      </trkpt>
      <trkpt lat="48.67947" lon="2.12511">
        <ele>161.80000305176</ele>
        <time>2017-05-25T06:25:41.000Z</time>
      </trkpt>
      <trkpt lat="48.67927" lon="2.12514">
        <ele>161.80000305176</ele>
        <time>2017-05-25T06:25:46.000Z</time>
      </trkpt>
      <trkpt lat="48.67908" lon="2.12512">
        <ele>161.60000610352</ele>
        <time>2017-05-25T06:25:51.000Z</time>
      </trkpt>
      <trkpt lat="48.6789" lon="2.12508">
        <ele>161.39999389648</ele>
        <time>2017-05-25T06:25:56.000Z</time>
      </trkpt>
      <trkpt lat="48.67871" lon="2.12505">
        <ele>161.19999694824</ele>
        <time>2017-05-25T06:26:01.000Z</time>
      </trkpt>
      <trkpt lat="48.67852" lon="2.125">
        <ele>161</ele>
        <time>2017-05-25T06:26:06.000Z</time>
      </trkpt>
      <trkpt lat="48.67831" lon="2.12495">
        <ele>161.19999694824</ele>
        <time>2017-05-25T06:26:12.000Z</time>
      </trkpt>
      <trkpt lat="48.67813" lon="2.12489">
        <ele>161.60000610352</ele>
        <time>2017-05-25T06:26:17.000Z</time>
      </trkpt>
      <trkpt lat="48.67793" lon="2.12486">
        <ele>161.80000305176</ele>
        <time>2017-05-25T06:26:23.000Z</time>
      </trkpt>
      <trkpt lat="48.67773" lon="2.12481">
        <ele>162.19999694824</ele>
        <time>2017-05-25T06:26:29.000Z</time>
      </trkpt>
      <trkpt lat="48.67753" lon="2.1248">
        <ele>162.19999694824</ele>
        <time>2017-05-25T06:26:35.000Z</time>
      </trkpt>
      <trkpt lat="48.67734" lon="2.12479">
        <ele>162.39999389648</ele>
        <time>2017-05-25T06:26:41.000Z</time>
      </trkpt>
      <trkpt lat="48.67714" lon="2.12478">
        <ele>162.60000610352</ele>
        <time>2017-05-25T06:26:47.000Z</time>
      </trkpt>
      <trkpt lat="48.67694" lon="2.12479">
        <ele>163</ele>
        <time>2017-05-25T06:26:53.000Z</time>
      </trkpt>
      <trkpt lat="48.67674" lon="2.12481">
        <ele>163.19999694824</ele>
        <time>2017-05-25T06:26:59.000Z</time>
      </trkpt>
      <trkpt lat="48.67655" lon="2.12484">
        <ele>163.39999389648</ele>
        <time>2017-05-25T06:27:05.000Z</time>
      </trkpt>
      <trkpt lat="48.67635" lon="2.12487">
        <ele>163.60000610352</ele>
        <time>2017-05-25T06:27:11.000Z</time>
      </trkpt>
      <trkpt lat="48.67615" lon="2.1249">
        <ele>163.80000305176</ele>
        <time>2017-05-25T06:27:17.000Z</time>
      </trkpt>
      <trkpt lat="48.67594" lon="2.12493">
        <ele>164.19999694824</ele>
        <time>2017-05-25T06:27:23.000Z</time>
      </trkpt>
      <trkpt lat="48.67573" lon="2.12496">
        <ele>164.39999389648</ele>
        <time>2017-05-25T06:27:29.000Z</time>
      </trkpt>
      <trkpt lat="48.67552" lon="2.12499">
        <ele>164.60000610352</ele>
        <time>2017-05-25T06:27:35.000Z</time>
      </trkpt>
      <trkpt lat="48.67531" lon="2.12501">
        <ele>164.80000305176</ele>
        <time>2017-05-25T06:27:41.000Z</time>
      </trkpt>
      <trkpt lat="48.6751" lon="2.12502">
        <ele>165</ele>
        <time>2017-05-25T06:27:47.000Z</time>
      </trkpt>
      <trkpt lat="48.6749" lon="2.12502">
        <ele>165.19999694824</ele>
        <time>2017-05-25T06:27:53.000Z</time>
      </trkpt>
      <trkpt lat="48.67469" lon="2.12503">
        <ele>165.60000610352</ele>
        <time>2017-05-25T06:27:59.000Z</time>
      </trkpt>
      <trkpt lat="48.67449" lon="2.12505">
        <ele>165.80000305176</ele>
        <time>2017-05-25T06:28:05.000Z</time>
      </trkpt>
      <trkpt lat="48.67432" lon="2.12519">
        <ele>166.39999389648</ele>
        <time>2017-05-25T06:28:11.000Z</time>
      </trkpt>
      <trkpt lat="48.67423" lon="2.12547">
        <ele>166.80000305176</ele>
        <time>2017-05-25T06:28:17.000Z</time>
      </trkpt>
      <trkpt lat="48.67421" lon="2.12551">
        <ele>166.80000305176</ele>
        <time>2017-05-25T06:28:18.000Z</time>
      </trkpt>
      <trkpt lat="48.67403" lon="2.12544">
        <ele>167</ele>
        <time>2017-05-25T06:28:23.000Z</time>
      </trkpt>
      <trkpt lat="48.674" lon="2.12542">
        <ele>167</ele>
        <time>2017-05-25T06:28:24.000Z</time>
      </trkpt>
      <trkpt lat="48.67381" lon="2.12527">
        <ele>167.19999694824</ele>
        <time>2017-05-25T06:28:30.000Z</time>
      </trkpt>
      <trkpt lat="48.67362" lon="2.12515">
        <ele>167.19999694824</ele>
        <time>2017-05-25T06:28:36.000Z</time>
      </trkpt>
      <trkpt lat="48.67344" lon="2.125">
        <ele>167.39999389648</ele>
        <time>2017-05-25T06:28:42.000Z</time>
      </trkpt>
      <trkpt lat="48.67326" lon="2.12486">
        <ele>168</ele>
        <time>2017-05-25T06:28:48.000Z</time>
      </trkpt>
      <trkpt lat="48.67307" lon="2.12473">
        <ele>168.60000610352</ele>
        <time>2017-05-25T06:28:54.000Z</time>
      </trkpt>
      <trkpt lat="48.673" lon="2.1247">
        <ele>169</ele>
        <time>2017-05-25T06:28:57.000Z</time>
      </trkpt>
      <trkpt lat="48.67289" lon="2.12496">
        <ele>169.39999389648</ele>
        <time>2017-05-25T06:29:04.000Z</time>
      </trkpt>
      <trkpt lat="48.67279" lon="2.12522">
        <ele>169.80000305176</ele>
        <time>2017-05-25T06:29:10.000Z</time>
      </trkpt>
      <trkpt lat="48.67269" lon="2.12549">
        <ele>170</ele>
        <time>2017-05-25T06:29:16.000Z</time>
      </trkpt>
      <trkpt lat="48.67257" lon="2.12566">
        <ele>169.80000305176</ele>
        <time>2017-05-25T06:29:21.000Z</time>
      </trkpt>
      <trkpt lat="48.67239" lon="2.12554">
        <ele>169.60000610352</ele>
        <time>2017-05-25T06:29:26.000Z</time>
      </trkpt>
      <trkpt lat="48.67222" lon="2.12539">
        <ele>169.39999389648</ele>
        <time>2017-05-25T06:29:31.000Z</time>
      </trkpt>
      <trkpt lat="48.67206" lon="2.12523">
        <ele>169.19999694824</ele>
        <time>2017-05-25T06:29:36.000Z</time>
      </trkpt>
      <trkpt lat="48.67192" lon="2.12505">
        <ele>169</ele>
        <time>2017-05-25T06:29:41.000Z</time>
      </trkpt>
      <trkpt lat="48.67182" lon="2.12498">
        <ele>168.80000305176</ele>
        <time>2017-05-25T06:29:45.000Z</time>
      </trkpt>
      <trkpt lat="48.6717" lon="2.12496">
        <ele>168.60000610352</ele>
        <time>2017-05-25T06:29:50.000Z</time>
      </trkpt>
      <trkpt lat="48.67153" lon="2.1249">
        <ele>168.19999694824</ele>
        <time>2017-05-25T06:29:55.000Z</time>
      </trkpt>
      <trkpt lat="48.67137" lon="2.1251">
        <ele>167.60000610352</ele>
        <time>2017-05-25T06:30:01.000Z</time>
      </trkpt>
      <trkpt lat="48.6713" lon="2.12515">
        <ele>167.39999389648</ele>
        <time>2017-05-25T06:30:03.000Z</time>
      </trkpt>
      <trkpt lat="48.67116" lon="2.1251">
        <ele>167.19999694824</ele>
        <time>2017-05-25T06:30:07.000Z</time>
      </trkpt>
      <trkpt lat="48.67098" lon="2.125">
        <ele>166.80000305176</ele>
        <time>2017-05-25T06:30:12.000Z</time>
      </trkpt>
      <trkpt lat="48.67093" lon="2.125">
        <ele>166.60000610352</ele>
        <time>2017-05-25T06:30:14.000Z</time>
      </trkpt>
      <trkpt lat="48.67085" lon="2.12529">
        <ele>166.19999694824</ele>
        <time>2017-05-25T06:30:20.000Z</time>
      </trkpt>
      <trkpt lat="48.67071" lon="2.12549">
        <ele>165.39999389648</ele>
        <time>2017-05-25T06:30:26.000Z</time>
      </trkpt>
      <trkpt lat="48.67054" lon="2.12562">
        <ele>164.60000610352</ele>
        <time>2017-05-25T06:30:32.000Z</time>
      </trkpt>
      <trkpt lat="48.67037" lon="2.1258">
        <ele>163.80000305176</ele>
        <time>2017-05-25T06:30:38.000Z</time>
      </trkpt>
      <trkpt lat="48.67018" lon="2.12587">
        <ele>163.19999694824</ele>
        <time>2017-05-25T06:30:43.000Z</time>
      </trkpt>
      <trkpt lat="48.67" lon="2.12589">
        <ele>163.19999694824</ele>
        <time>2017-05-25T06:30:48.000Z</time>
      </trkpt>
      <trkpt lat="48.66981" lon="2.12599">
        <ele>163.60000610352</ele>
        <time>2017-05-25T06:30:54.000Z</time>
      </trkpt>
      <trkpt lat="48.66969" lon="2.1258">
        <ele>163</ele>
        <time>2017-05-25T06:30:59.000Z</time>
      </trkpt>
      <trkpt lat="48.66963" lon="2.12549">
        <ele>163</ele>
        <time>2017-05-25T06:31:05.000Z</time>
      </trkpt>
      <trkpt lat="48.66956" lon="2.1252">
        <ele>163</ele>
        <time>2017-05-25T06:31:11.000Z</time>
      </trkpt>
      <trkpt lat="48.66946" lon="2.12492">
        <ele>163</ele>
        <time>2017-05-25T06:31:17.000Z</time>
      </trkpt>
      <trkpt lat="48.66936" lon="2.12463">
        <ele>163</ele>
        <time>2017-05-25T06:31:23.000Z</time>
      </trkpt>
      <trkpt lat="48.66927" lon="2.12436">
        <ele>162.39999389648</ele>
        <time>2017-05-25T06:31:29.000Z</time>
      </trkpt>
      <trkpt lat="48.6692" lon="2.12407">
        <ele>162.19999694824</ele>
        <time>2017-05-25T06:31:35.000Z</time>
      </trkpt>
      <trkpt lat="48.66916" lon="2.12381">
        <ele>162.19999694824</ele>
        <time>2017-05-25T06:31:40.000Z</time>
      </trkpt>
      <trkpt lat="48.66917" lon="2.12353">
        <ele>161.80000305176</ele>
        <time>2017-05-25T06:31:45.000Z</time>
      </trkpt>
      <trkpt lat="48.66915" lon="2.12324">
        <ele>161.60000610352</ele>
        <time>2017-05-25T06:31:50.000Z</time>
      </trkpt>
      <trkpt lat="48.6691" lon="2.12293">
        <ele>162.60000610352</ele>
        <time>2017-05-25T06:31:56.000Z</time>
      </trkpt>
      <trkpt lat="48.66903" lon="2.12265">
        <ele>162.39999389648</ele>
        <time>2017-05-25T06:32:02.000Z</time>
      </trkpt>
      <trkpt lat="48.66896" lon="2.12235">
        <ele>162.60000610352</ele>
        <time>2017-05-25T06:32:08.000Z</time>
      </trkpt>
      <trkpt lat="48.66889" lon="2.12206">
        <ele>163.19999694824</ele>
        <time>2017-05-25T06:32:14.000Z</time>
      </trkpt>
      <trkpt lat="48.66884" lon="2.12175">
        <ele>163</ele>
        <time>2017-05-25T06:32:20.000Z</time>
      </trkpt>
      <trkpt lat="48.66893" lon="2.12176">
        <ele>162.19999694824</ele>
        <time>2017-05-25T06:35:38.000Z</time>
      </trkpt>
      <trkpt lat="48.66907" lon="2.12155">
        <ele>160.19999694824</ele>
        <time>2017-05-25T06:35:45.000Z</time>
      </trkpt>
      <trkpt lat="48.66917" lon="2.12142">
        <ele>159</ele>
        <time>2017-05-25T06:35:49.000Z</time>
      </trkpt>
      <trkpt lat="48.66935" lon="2.1215">
        <ele>158</ele>
        <time>2017-05-25T06:35:55.000Z</time>
      </trkpt>
      <trkpt lat="48.6695" lon="2.12132">
        <ele>158.60000610352</ele>
        <time>2017-05-25T06:36:01.000Z</time>
      </trkpt>
      <trkpt lat="48.66955" lon="2.12117">
        <ele>159</ele>
        <time>2017-05-25T06:36:05.000Z</time>
      </trkpt>
      <trkpt lat="48.66956" lon="2.1209">
        <ele>158.80000305176</ele>
        <time>2017-05-25T06:36:11.000Z</time>
      </trkpt>
      <trkpt lat="48.6697" lon="2.12065">
        <ele>159</ele>
        <time>2017-05-25T06:36:17.000Z</time>
      </trkpt>
      <trkpt lat="48.66985" lon="2.12045">
        <ele>159.39999389648</ele>
        <time>2017-05-25T06:36:23.000Z</time>
      </trkpt>
      <trkpt lat="48.66996" lon="2.12023">
        <ele>158.80000305176</ele>
        <time>2017-05-25T06:36:29.000Z</time>
      </trkpt>
      <trkpt lat="48.66987" lon="2.11998">
        <ele>157.80000305176</ele>
        <time>2017-05-25T06:36:35.000Z</time>
      </trkpt>
      <trkpt lat="48.66982" lon="2.11983">
        <ele>157.60000610352</ele>
        <time>2017-05-25T06:36:38.000Z</time>
      </trkpt>
      <trkpt lat="48.66986" lon="2.11957">
        <ele>157.60000610352</ele>
        <time>2017-05-25T06:36:43.000Z</time>
      </trkpt>
      <trkpt lat="48.67001" lon="2.11939">
        <ele>157.39999389648</ele>
        <time>2017-05-25T06:36:48.000Z</time>
      </trkpt>
      <trkpt lat="48.67014" lon="2.11926">
        <ele>157.19999694824</ele>
        <time>2017-05-25T06:36:52.000Z</time>
      </trkpt>
      <trkpt lat="48.67034" lon="2.11928">
        <ele>157.80000305176</ele>
        <time>2017-05-25T06:36:58.000Z</time>
      </trkpt>
      <trkpt lat="48.67053" lon="2.11934">
        <ele>158.60000610352</ele>
        <time>2017-05-25T06:37:04.000Z</time>
      </trkpt>
      <trkpt lat="48.67073" lon="2.11939">
        <ele>159.19999694824</ele>
        <time>2017-05-25T06:37:10.000Z</time>
      </trkpt>
      <trkpt lat="48.67093" lon="2.11946">
        <ele>160</ele>
        <time>2017-05-25T06:37:16.000Z</time>
      </trkpt>
      <trkpt lat="48.67111" lon="2.11957">
        <ele>160.80000305176</ele>
        <time>2017-05-25T06:37:22.000Z</time>
      </trkpt>
      <trkpt lat="48.67127" lon="2.11969">
        <ele>161.19999694824</ele>
        <time>2017-05-25T06:37:28.000Z</time>
      </trkpt>
      <trkpt lat="48.67144" lon="2.11984">
        <ele>161.80000305176</ele>
        <time>2017-05-25T06:37:34.000Z</time>
      </trkpt>
      <trkpt lat="48.67162" lon="2.11997">
        <ele>162.39999389648</ele>
        <time>2017-05-25T06:37:40.000Z</time>
      </trkpt>
      <trkpt lat="48.67179" lon="2.12012">
        <ele>163.19999694824</ele>
        <time>2017-05-25T06:37:46.000Z</time>
      </trkpt>
      <trkpt lat="48.67197" lon="2.12027">
        <ele>164.39999389648</ele>
        <time>2017-05-25T06:37:52.000Z</time>
      </trkpt>
      <trkpt lat="48.67215" lon="2.1204">
        <ele>165.60000610352</ele>
        <time>2017-05-25T06:37:58.000Z</time>
      </trkpt>
      <trkpt lat="48.6723" lon="2.12056">
        <ele>166.60000610352</ele>
        <time>2017-05-25T06:38:03.000Z</time>
      </trkpt>
      <trkpt lat="48.67229" lon="2.12078">
        <ele>167</ele>
        <time>2017-05-25T06:38:07.000Z</time>
      </trkpt>
      <trkpt lat="48.67223" lon="2.12105">
        <ele>166.80000305176</ele>
        <time>2017-05-25T06:38:12.000Z</time>
      </trkpt>
      <trkpt lat="48.67218" lon="2.12136">
        <ele>167.19999694824</ele>
        <time>2017-05-25T06:38:18.000Z</time>
      </trkpt>
      <trkpt lat="48.67221" lon="2.12166">
        <ele>167.80000305176</ele>
        <time>2017-05-25T06:38:24.000Z</time>
      </trkpt>
      <trkpt lat="48.67239" lon="2.12183">
        <ele>167.80000305176</ele>
        <time>2017-05-25T06:38:31.000Z</time>
      </trkpt>
      <trkpt lat="48.67255" lon="2.12197">
        <ele>167.80000305176</ele>
        <time>2017-05-25T06:38:37.000Z</time>
      </trkpt>
      <trkpt lat="48.67273" lon="2.12214">
        <ele>167.80000305176</ele>
        <time>2017-05-25T06:38:43.000Z</time>
      </trkpt>
      <trkpt lat="48.67291" lon="2.12224">
        <ele>167.39999389648</ele>
        <time>2017-05-25T06:38:49.000Z</time>
      </trkpt>
      <trkpt lat="48.67309" lon="2.12227">
        <ele>167.39999389648</ele>
        <time>2017-05-25T06:38:55.000Z</time>
      </trkpt>
      <trkpt lat="48.6732" lon="2.12204">
        <ele>167.80000305176</ele>
        <time>2017-05-25T06:39:01.000Z</time>
      </trkpt>
      <trkpt lat="48.67324" lon="2.12191">
        <ele>168</ele>
        <time>2017-05-25T06:39:04.000Z</time>
      </trkpt>
      <trkpt lat="48.67337" lon="2.1219">
        <ele>167.80000305176</ele>
        <time>2017-05-25T06:39:08.000Z</time>
      </trkpt>
      <trkpt lat="48.67358" lon="2.12198">
        <ele>167.60000610352</ele>
        <time>2017-05-25T06:39:14.000Z</time>
      </trkpt>
      <trkpt lat="48.67375" lon="2.12207">
        <ele>167.39999389648</ele>
        <time>2017-05-25T06:39:19.000Z</time>
      </trkpt>
      <trkpt lat="48.67395" lon="2.12211">
        <ele>167.39999389648</ele>
        <time>2017-05-25T06:39:25.000Z</time>
      </trkpt>
      <trkpt lat="48.67411" lon="2.12193">
        <ele>167.60000610352</ele>
        <time>2017-05-25T06:39:31.000Z</time>
      </trkpt>
      <trkpt lat="48.67431" lon="2.122">
        <ele>167.60000610352</ele>
        <time>2017-05-25T06:39:37.000Z</time>
      </trkpt>
      <trkpt lat="48.67452" lon="2.12207">
        <ele>167.39999389648</ele>
        <time>2017-05-25T06:39:43.000Z</time>
      </trkpt>
      <trkpt lat="48.67472" lon="2.12209">
        <ele>167.39999389648</ele>
        <time>2017-05-25T06:39:49.000Z</time>
      </trkpt>
      <trkpt lat="48.6748" lon="2.1219">
        <ele>167.39999389648</ele>
        <time>2017-05-25T06:39:54.000Z</time>
      </trkpt>
      <trkpt lat="48.67501" lon="2.1219">
        <ele>167.19999694824</ele>
        <time>2017-05-25T06:40:00.000Z</time>
      </trkpt>
      <trkpt lat="48.67522" lon="2.12182">
        <ele>167</ele>
        <time>2017-05-25T06:40:06.000Z</time>
      </trkpt>
      <trkpt lat="48.67543" lon="2.12178">
        <ele>166.39999389648</ele>
        <time>2017-05-25T06:40:12.000Z</time>
      </trkpt>
      <trkpt lat="48.67565" lon="2.12182">
        <ele>166</ele>
        <time>2017-05-25T06:40:18.000Z</time>
      </trkpt>
      <trkpt lat="48.67585" lon="2.12193">
        <ele>165.39999389648</ele>
        <time>2017-05-25T06:40:24.000Z</time>
      </trkpt>
      <trkpt lat="48.67603" lon="2.12208">
        <ele>165</ele>
        <time>2017-05-25T06:40:30.000Z</time>
      </trkpt>
      <trkpt lat="48.6762" lon="2.12227">
        <ele>164.60000610352</ele>
        <time>2017-05-25T06:40:36.000Z</time>
      </trkpt>
      <trkpt lat="48.6764" lon="2.12237">
        <ele>164.19999694824</ele>
        <time>2017-05-25T06:40:42.000Z</time>
      </trkpt>
      <trkpt lat="48.67658" lon="2.12229">
        <ele>163.60000610352</ele>
        <time>2017-05-25T06:40:48.000Z</time>
      </trkpt>
      <trkpt lat="48.67673" lon="2.1221">
        <ele>163.60000610352</ele>
        <time>2017-05-25T06:40:54.000Z</time>
      </trkpt>
      <trkpt lat="48.67682" lon="2.12184">
        <ele>163.80000305176</ele>
        <time>2017-05-25T06:41:00.000Z</time>
      </trkpt>
      <trkpt lat="48.67691" lon="2.12156">
        <ele>164</ele>
        <time>2017-05-25T06:41:06.000Z</time>
      </trkpt>
      <trkpt lat="48.67699" lon="2.12129">
        <ele>164.39999389648</ele>
        <time>2017-05-25T06:41:12.000Z</time>
      </trkpt>
      <trkpt lat="48.67708" lon="2.121">
        <ele>164.80000305176</ele>
        <time>2017-05-25T06:41:18.000Z</time>
      </trkpt>
      <trkpt lat="48.67717" lon="2.12073">
        <ele>163.80000305176</ele>
        <time>2017-05-25T06:41:24.000Z</time>
      </trkpt>
      <trkpt lat="48.67726" lon="2.12045">
        <ele>163.60000610352</ele>
        <time>2017-05-25T06:41:30.000Z</time>
      </trkpt>
      <trkpt lat="48.67736" lon="2.12019">
        <ele>164</ele>
        <time>2017-05-25T06:41:36.000Z</time>
      </trkpt>
      <trkpt lat="48.67746" lon="2.11992">
        <ele>165</ele>
        <time>2017-05-25T06:41:42.000Z</time>
      </trkpt>
      <trkpt lat="48.67755" lon="2.11963">
        <ele>165.80000305176</ele>
        <time>2017-05-25T06:41:48.000Z</time>
      </trkpt>
      <trkpt lat="48.67763" lon="2.11934">
        <ele>166.39999389648</ele>
        <time>2017-05-25T06:41:54.000Z</time>
      </trkpt>
      <trkpt lat="48.67771" lon="2.11906">
        <ele>167</ele>
        <time>2017-05-25T06:42:00.000Z</time>
      </trkpt>
      <trkpt lat="48.67782" lon="2.1188">
        <ele>167.19999694824</ele>
        <time>2017-05-25T06:42:06.000Z</time>
      </trkpt>
      <trkpt lat="48.67791" lon="2.11853">
        <ele>167.39999389648</ele>
        <time>2017-05-25T06:42:12.000Z</time>
      </trkpt>
      <trkpt lat="48.678" lon="2.11824">
        <ele>167.19999694824</ele>
        <time>2017-05-25T06:42:18.000Z</time>
      </trkpt>
      <trkpt lat="48.6781" lon="2.11798">
        <ele>166.39999389648</ele>
        <time>2017-05-25T06:42:24.000Z</time>
      </trkpt>
      <trkpt lat="48.67819" lon="2.11771">
        <ele>166</ele>
        <time>2017-05-25T06:42:30.000Z</time>
      </trkpt>
      <trkpt lat="48.6783" lon="2.11744">
        <ele>166</ele>
        <time>2017-05-25T06:42:36.000Z</time>
      </trkpt>
      <trkpt lat="48.67839" lon="2.11715">
        <ele>166</ele>
        <time>2017-05-25T06:42:42.000Z</time>
      </trkpt>
      <trkpt lat="48.67849" lon="2.11687">
        <ele>166</ele>
        <time>2017-05-25T06:42:48.000Z</time>
      </trkpt>
      <trkpt lat="48.67859" lon="2.1166">
        <ele>166</ele>
        <time>2017-05-25T06:42:54.000Z</time>
      </trkpt>
      <trkpt lat="48.67869" lon="2.11632">
        <ele>166.60000610352</ele>
        <time>2017-05-25T06:43:00.000Z</time>
      </trkpt>
      <trkpt lat="48.6788" lon="2.11605">
        <ele>167</ele>
        <time>2017-05-25T06:43:06.000Z</time>
      </trkpt>
      <trkpt lat="48.67887" lon="2.11577">
        <ele>166.60000610352</ele>
        <time>2017-05-25T06:43:12.000Z</time>
      </trkpt>
      <trkpt lat="48.67897" lon="2.11552">
        <ele>167</ele>
        <time>2017-05-25T06:43:18.000Z</time>
      </trkpt>
      <trkpt lat="48.67912" lon="2.11572">
        <ele>166.39999389648</ele>
        <time>2017-05-25T06:43:24.000Z</time>
      </trkpt>
      <trkpt lat="48.67929" lon="2.1159">
        <ele>166.19999694824</ele>
        <time>2017-05-25T06:43:30.000Z</time>
      </trkpt>
      <trkpt lat="48.67944" lon="2.11611">
        <ele>166.39999389648</ele>
        <time>2017-05-25T06:43:36.000Z</time>
      </trkpt>
      <trkpt lat="48.67958" lon="2.11633">
        <ele>166.39999389648</ele>
        <time>2017-05-25T06:43:42.000Z</time>
      </trkpt>
      <trkpt lat="48.67976" lon="2.11647">
        <ele>166.39999389648</ele>
        <time>2017-05-25T06:43:48.000Z</time>
      </trkpt>
      <trkpt lat="48.67991" lon="2.11666">
        <ele>166.19999694824</ele>
        <time>2017-05-25T06:43:54.000Z</time>
      </trkpt>
      <trkpt lat="48.67995" lon="2.11696">
        <ele>165.80000305176</ele>
        <time>2017-05-25T06:43:59.000Z</time>
      </trkpt>
      <trkpt lat="48.67994" lon="2.11701">
        <ele>165.80000305176</ele>
        <time>2017-05-25T06:44:00.000Z</time>
      </trkpt>
      <trkpt lat="48.67988" lon="2.11731">
        <ele>165.80000305176</ele>
        <time>2017-05-25T06:44:06.000Z</time>
      </trkpt>
      <trkpt lat="48.67982" lon="2.1176">
        <ele>166</ele>
        <time>2017-05-25T06:44:12.000Z</time>
      </trkpt>
      <trkpt lat="48.67986" lon="2.11778">
        <ele>165.80000305176</ele>
        <time>2017-05-25T06:44:17.000Z</time>
      </trkpt>
      <trkpt lat="48.68004" lon="2.11786">
        <ele>165.39999389648</ele>
        <time>2017-05-25T06:44:24.000Z</time>
      </trkpt>
      <trkpt lat="48.68025" lon="2.11789">
        <ele>165</ele>
        <time>2017-05-25T06:44:31.000Z</time>
      </trkpt>
      <trkpt lat="48.68047" lon="2.11791">
        <ele>165</ele>
        <time>2017-05-25T06:44:37.000Z</time>
      </trkpt>
      <trkpt lat="48.68066" lon="2.11798">
        <ele>165</ele>
        <time>2017-05-25T06:44:43.000Z</time>
      </trkpt>
      <trkpt lat="48.68087" lon="2.11804">
        <ele>165</ele>
        <time>2017-05-25T06:44:49.000Z</time>
      </trkpt>
      <trkpt lat="48.68108" lon="2.11807">
        <ele>164.60000610352</ele>
        <time>2017-05-25T06:44:55.000Z</time>
      </trkpt>
      <trkpt lat="48.68128" lon="2.11816">
        <ele>164.60000610352</ele>
        <time>2017-05-25T06:45:01.000Z</time>
      </trkpt>
      <trkpt lat="48.68139" lon="2.11829">
        <ele>164.60000610352</ele>
        <time>2017-05-25T06:45:05.000Z</time>
      </trkpt>
      <trkpt lat="48.68138" lon="2.11849">
        <ele>164.60000610352</ele>
        <time>2017-05-25T06:45:09.000Z</time>
      </trkpt>
      <trkpt lat="48.68134" lon="2.11862">
        <ele>164.60000610352</ele>
        <time>2017-05-25T06:45:49.000Z</time>
      </trkpt>
      <trkpt lat="48.68126" lon="2.11888">
        <ele>164.19999694824</ele>
        <time>2017-05-25T06:45:55.000Z</time>
      </trkpt>
      <trkpt lat="48.6812" lon="2.11919">
        <ele>164</ele>
        <time>2017-05-25T06:46:01.000Z</time>
      </trkpt>
      <trkpt lat="48.68121" lon="2.11947">
        <ele>164</ele>
        <time>2017-05-25T06:46:06.000Z</time>
      </trkpt>
      <trkpt lat="48.68115" lon="2.11973">
        <ele>164</ele>
        <time>2017-05-25T06:46:11.000Z</time>
      </trkpt>
      <trkpt lat="48.68106" lon="2.11997">
        <ele>164</ele>
        <time>2017-05-25T06:46:16.000Z</time>
      </trkpt>
      <trkpt lat="48.68092" lon="2.12015">
        <ele>164.39999389648</ele>
        <time>2017-05-25T06:46:22.000Z</time>
      </trkpt>
      <trkpt lat="48.68082" lon="2.12017">
        <ele>164.39999389648</ele>
        <time>2017-05-25T06:46:25.000Z</time>
      </trkpt>
      <trkpt lat="48.68071" lon="2.12042">
        <ele>164.80000305176</ele>
        <time>2017-05-25T06:46:32.000Z</time>
      </trkpt>
      <trkpt lat="48.68062" lon="2.12071">
        <ele>164.60000610352</ele>
        <time>2017-05-25T06:46:39.000Z</time>
      </trkpt>
      <trkpt lat="48.68052" lon="2.12096">
        <ele>164</ele>
        <time>2017-05-25T06:46:45.000Z</time>
      </trkpt>
      <trkpt lat="48.68042" lon="2.1212">
        <ele>163.60000610352</ele>
        <time>2017-05-25T06:46:51.000Z</time>
      </trkpt>
      <trkpt lat="48.68028" lon="2.12144">
        <ele>163.19999694824</ele>
        <time>2017-05-25T06:46:56.000Z</time>
      </trkpt>
      <trkpt lat="48.68018" lon="2.12167">
        <ele>163</ele>
        <time>2017-05-25T06:47:01.000Z</time>
      </trkpt>
      <trkpt lat="48.68007" lon="2.12191">
        <ele>163.39999389648</ele>
        <time>2017-05-25T06:47:06.000Z</time>
      </trkpt>
      <trkpt lat="48.67995" lon="2.12213">
        <ele>163.60000610352</ele>
        <time>2017-05-25T06:47:11.000Z</time>
      </trkpt>
      <trkpt lat="48.67983" lon="2.12235">
        <ele>163.60000610352</ele>
        <time>2017-05-25T06:47:16.000Z</time>
      </trkpt>
      <trkpt lat="48.67975" lon="2.12264">
        <ele>163.19999694824</ele>
        <time>2017-05-25T06:47:22.000Z</time>
      </trkpt>
      <trkpt lat="48.67974" lon="2.12295">
        <ele>163</ele>
        <time>2017-05-25T06:47:28.000Z</time>
      </trkpt>
      <trkpt lat="48.67974" lon="2.12327">
        <ele>163</ele>
        <time>2017-05-25T06:47:34.000Z</time>
      </trkpt>
      <trkpt lat="48.67974" lon="2.12354">
        <ele>163</ele>
        <time>2017-05-25T06:47:39.000Z</time>
      </trkpt>
      <trkpt lat="48.67974" lon="2.12382">
        <ele>163</ele>
        <time>2017-05-25T06:47:44.000Z</time>
      </trkpt>
      <trkpt lat="48.67972" lon="2.12411">
        <ele>163</ele>
        <time>2017-05-25T06:47:49.000Z</time>
      </trkpt>
      <trkpt lat="48.67971" lon="2.12439">
        <ele>162.60000610352</ele>
        <time>2017-05-25T06:47:54.000Z</time>
      </trkpt>
      <trkpt lat="48.6797" lon="2.12468">
        <ele>162.39999389648</ele>
        <time>2017-05-25T06:47:59.000Z</time>
      </trkpt>
      <trkpt lat="48.67967" lon="2.12495">
        <ele>162</ele>
        <time>2017-05-25T06:48:04.000Z</time>
      </trkpt>
      <trkpt lat="48.67961" lon="2.12507">
        <ele>161.80000305176</ele>
        <time>2017-05-25T06:48:07.000Z</time>
      </trkpt>
      <trkpt lat="48.67943" lon="2.1251">
        <ele>162</ele>
        <time>2017-05-25T06:48:11.000Z</time>
      </trkpt>
      <trkpt lat="48.67922" lon="2.12509">
        <ele>161.80000305176</ele>
        <time>2017-05-25T06:48:16.000Z</time>
      </trkpt>
      <trkpt lat="48.67901" lon="2.12506">
        <ele>161.60000610352</ele>
        <time>2017-05-25T06:48:21.000Z</time>
      </trkpt>
      <trkpt lat="48.67882" lon="2.12503">
        <ele>161.39999389648</ele>
        <time>2017-05-25T06:48:26.000Z</time>
      </trkpt>
      <trkpt lat="48.67863" lon="2.125">
        <ele>161.19999694824</ele>
        <time>2017-05-25T06:48:31.000Z</time>
      </trkpt>
      <trkpt lat="48.67845" lon="2.12496">
        <ele>161</ele>
        <time>2017-05-25T06:48:36.000Z</time>
      </trkpt>
      <trkpt lat="48.67827" lon="2.12491">
        <ele>161.39999389648</ele>
        <time>2017-05-25T06:48:41.000Z</time>
      </trkpt>
      <trkpt lat="48.67809" lon="2.12487">
        <ele>161.60000610352</ele>
        <time>2017-05-25T06:48:46.000Z</time>
      </trkpt>
      <trkpt lat="48.67791" lon="2.12484">
        <ele>161.80000305176</ele>
        <time>2017-05-25T06:48:51.000Z</time>
      </trkpt>
      <trkpt lat="48.67769" lon="2.12483">
        <ele>162.19999694824</ele>
        <time>2017-05-25T06:48:57.000Z</time>
      </trkpt>
      <trkpt lat="48.67748" lon="2.12482">
        <ele>162.19999694824</ele>
        <time>2017-05-25T06:49:03.000Z</time>
      </trkpt>
      <trkpt lat="48.67728" lon="2.12483">
        <ele>162.60000610352</ele>
        <time>2017-05-25T06:49:09.000Z</time>
      </trkpt>
      <trkpt lat="48.67707" lon="2.12483">
        <ele>162.80000305176</ele>
        <time>2017-05-25T06:49:15.000Z</time>
      </trkpt>
      <trkpt lat="48.67687" lon="2.12485">
        <ele>163</ele>
        <time>2017-05-25T06:49:21.000Z</time>
      </trkpt>
      <trkpt lat="48.67667" lon="2.12487">
        <ele>163.19999694824</ele>
        <time>2017-05-25T06:49:27.000Z</time>
      </trkpt>
      <trkpt lat="48.67646" lon="2.1249">
        <ele>163.39999389648</ele>
        <time>2017-05-25T06:49:33.000Z</time>
      </trkpt>
      <trkpt lat="48.67626" lon="2.12493">
        <ele>163.80000305176</ele>
        <time>2017-05-25T06:49:39.000Z</time>
      </trkpt>
      <trkpt lat="48.67605" lon="2.12496">
        <ele>164</ele>
        <time>2017-05-25T06:49:45.000Z</time>
      </trkpt>
      <trkpt lat="48.67585" lon="2.12499">
        <ele>164.19999694824</ele>
        <time>2017-05-25T06:49:51.000Z</time>
      </trkpt>
      <trkpt lat="48.67563" lon="2.12502">
        <ele>164.39999389648</ele>
        <time>2017-05-25T06:49:57.000Z</time>
      </trkpt>
      <trkpt lat="48.67545" lon="2.12503">
        <ele>164.60000610352</ele>
        <time>2017-05-25T06:50:02.000Z</time>
      </trkpt>
      <trkpt lat="48.67524" lon="2.12505">
        <ele>164.80000305176</ele>
        <time>2017-05-25T06:50:08.000Z</time>
      </trkpt>
      <trkpt lat="48.67503" lon="2.12506">
        <ele>165</ele>
        <time>2017-05-25T06:50:14.000Z</time>
      </trkpt>
      <trkpt lat="48.67482" lon="2.12508">
        <ele>165.19999694824</ele>
        <time>2017-05-25T06:50:20.000Z</time>
      </trkpt>
      <trkpt lat="48.67461" lon="2.12509">
        <ele>165.60000610352</ele>
        <time>2017-05-25T06:50:26.000Z</time>
      </trkpt>
      <trkpt lat="48.67441" lon="2.12513">
        <ele>166</ele>
        <time>2017-05-25T06:50:32.000Z</time>
      </trkpt>
      <trkpt lat="48.67428" lon="2.12534">
        <ele>166.60000610352</ele>
        <time>2017-05-25T06:50:38.000Z</time>
      </trkpt>
      <trkpt lat="48.67422" lon="2.12562">
        <ele>167</ele>
        <time>2017-05-25T06:50:44.000Z</time>
      </trkpt>
      <trkpt lat="48.67421" lon="2.12566">
        <ele>167</ele>
        <time>2017-05-25T06:50:45.000Z</time>
      </trkpt>
      <trkpt lat="48.67404" lon="2.12548">
        <ele>167</ele>
        <time>2017-05-25T06:50:52.000Z</time>
      </trkpt>
      <trkpt lat="48.67391" lon="2.12539">
        <ele>167.19999694824</ele>
        <time>2017-05-25T06:50:56.000Z</time>
      </trkpt>
      <trkpt lat="48.67373" lon="2.12525">
        <ele>167.19999694824</ele>
        <time>2017-05-25T06:51:02.000Z</time>
      </trkpt>
      <trkpt lat="48.67355" lon="2.12511">
        <ele>167.39999389648</ele>
        <time>2017-05-25T06:51:08.000Z</time>
      </trkpt>
      <trkpt lat="48.67338" lon="2.12495">
        <ele>167.60000610352</ele>
        <time>2017-05-25T06:51:14.000Z</time>
      </trkpt>
      <trkpt lat="48.6732" lon="2.12481">
        <ele>168.19999694824</ele>
        <time>2017-05-25T06:51:20.000Z</time>
      </trkpt>
      <trkpt lat="48.67301" lon="2.12473">
        <ele>168.80000305176</ele>
        <time>2017-05-25T06:51:26.000Z</time>
      </trkpt>
      <trkpt lat="48.67299" lon="2.12475">
        <ele>169</ele>
        <time>2017-05-25T06:51:27.000Z</time>
      </trkpt>
      <trkpt lat="48.67287" lon="2.12496">
        <ele>169.39999389648</ele>
        <time>2017-05-25T06:51:33.000Z</time>
      </trkpt>
      <trkpt lat="48.67277" lon="2.12523">
        <ele>170</ele>
        <time>2017-05-25T06:51:39.000Z</time>
      </trkpt>
      <trkpt lat="48.6727" lon="2.12549">
        <ele>170</ele>
        <time>2017-05-25T06:51:45.000Z</time>
      </trkpt>
      <trkpt lat="48.67254" lon="2.12565">
        <ele>169.80000305176</ele>
        <time>2017-05-25T06:51:51.000Z</time>
      </trkpt>
      <trkpt lat="48.67237" lon="2.12549">
        <ele>169.60000610352</ele>
        <time>2017-05-25T06:51:56.000Z</time>
      </trkpt>
      <trkpt lat="48.67219" lon="2.12534">
        <ele>169.39999389648</ele>
        <time>2017-05-25T06:52:01.000Z</time>
      </trkpt>
      <trkpt lat="48.67203" lon="2.12515">
        <ele>169.19999694824</ele>
        <time>2017-05-25T06:52:07.000Z</time>
      </trkpt>
      <trkpt lat="48.67184" lon="2.12506">
        <ele>168.80000305176</ele>
        <time>2017-05-25T06:52:13.000Z</time>
      </trkpt>
      <trkpt lat="48.67166" lon="2.12497">
        <ele>168.39999389648</ele>
        <time>2017-05-25T06:52:19.000Z</time>
      </trkpt>
      <trkpt lat="48.67146" lon="2.12498">
        <ele>168</ele>
        <time>2017-05-25T06:52:25.000Z</time>
      </trkpt>
      <trkpt lat="48.6713" lon="2.12516">
        <ele>167.39999389648</ele>
        <time>2017-05-25T06:52:31.000Z</time>
      </trkpt>
      <trkpt lat="48.67112" lon="2.1251">
        <ele>167.19999694824</ele>
        <time>2017-05-25T06:52:36.000Z</time>
      </trkpt>
      <trkpt lat="48.67095" lon="2.12502">
        <ele>166.60000610352</ele>
        <time>2017-05-25T06:52:41.000Z</time>
      </trkpt>
      <trkpt lat="48.6709" lon="2.12506">
        <ele>166.39999389648</ele>
        <time>2017-05-25T06:52:43.000Z</time>
      </trkpt>
      <trkpt lat="48.67082" lon="2.12531">
        <ele>166</ele>
        <time>2017-05-25T06:52:48.000Z</time>
      </trkpt>
      <trkpt lat="48.67069" lon="2.12552">
        <ele>165.39999389648</ele>
        <time>2017-05-25T06:52:54.000Z</time>
      </trkpt>
      <trkpt lat="48.6705" lon="2.12567">
        <ele>164.39999389648</ele>
        <time>2017-05-25T06:53:00.000Z</time>
      </trkpt>
      <trkpt lat="48.67034" lon="2.12585">
        <ele>163.80000305176</ele>
        <time>2017-05-25T06:53:06.000Z</time>
      </trkpt>
      <trkpt lat="48.67015" lon="2.12591">
        <ele>163.39999389648</ele>
        <time>2017-05-25T06:53:11.000Z</time>
      </trkpt>
      <trkpt lat="48.66997" lon="2.12593">
        <ele>163.39999389648</ele>
        <time>2017-05-25T06:53:16.000Z</time>
      </trkpt>
      <trkpt lat="48.66982" lon="2.12601">
        <ele>163.60000610352</ele>
        <time>2017-05-25T06:53:21.000Z</time>
      </trkpt>
      <trkpt lat="48.66971" lon="2.12589">
        <ele>163.19999694824</ele>
        <time>2017-05-25T06:53:25.000Z</time>
      </trkpt>
      <trkpt lat="48.66963" lon="2.12563">
        <ele>163</ele>
        <time>2017-05-25T06:53:30.000Z</time>
      </trkpt>
      <trkpt lat="48.66962" lon="2.12534">
        <ele>163</ele>
        <time>2017-05-25T06:53:35.000Z</time>
      </trkpt>
      <trkpt lat="48.66962" lon="2.12529">
        <ele>163</ele>
        <time>2017-05-25T06:53:36.000Z</time>
      </trkpt>
      <trkpt lat="48.66962" lon="2.1252">
        <ele>163</ele>
        <time>2017-05-25T06:53:57.000Z</time>
      </trkpt>
      <trkpt lat="48.66952" lon="2.12497">
        <ele>163</ele>
        <time>2017-05-25T06:54:04.000Z</time>
      </trkpt>
      <trkpt lat="48.66942" lon="2.12474">
        <ele>163</ele>
        <time>2017-05-25T06:54:09.000Z</time>
      </trkpt>
      <trkpt lat="48.66934" lon="2.12445">
        <ele>162.80000305176</ele>
        <time>2017-05-25T06:54:15.000Z</time>
      </trkpt>
      <trkpt lat="48.66923" lon="2.12417">
        <ele>162.19999694824</ele>
        <time>2017-05-25T06:54:21.000Z</time>
      </trkpt>
      <trkpt lat="48.66915" lon="2.12388">
        <ele>162.19999694824</ele>
        <time>2017-05-25T06:54:27.000Z</time>
      </trkpt>
      <trkpt lat="48.66916" lon="2.12358">
        <ele>161.80000305176</ele>
        <time>2017-05-25T06:54:32.000Z</time>
      </trkpt>
      <trkpt lat="48.66916" lon="2.12345">
        <ele>161.80000305176</ele>
        <time>2017-05-25T06:54:34.000Z</time>
      </trkpt>
      <trkpt lat="48.66911" lon="2.12318">
        <ele>161.80000305176</ele>
        <time>2017-05-25T06:54:39.000Z</time>
      </trkpt>
      <trkpt lat="48.66905" lon="2.12287">
        <ele>162.60000610352</ele>
        <time>2017-05-25T06:54:45.000Z</time>
      </trkpt>
      <trkpt lat="48.66897" lon="2.12257">
        <ele>162.60000610352</ele>
        <time>2017-05-25T06:54:51.000Z</time>
      </trkpt>
      <trkpt lat="48.66891" lon="2.1223">
        <ele>162.80000305176</ele>
        <time>2017-05-25T06:54:56.000Z</time>
      </trkpt>
      <trkpt lat="48.66884" lon="2.12205">
        <ele>163.39999389648</ele>
        <time>2017-05-25T06:55:01.000Z</time>
      </trkpt>
      <trkpt lat="48.6688" lon="2.12179">
        <ele>163.39999389648</ele>
        <time>2017-05-25T06:55:06.000Z</time>
      </trkpt>
      <trkpt lat="48.66869" lon="2.12153">
        <ele>163.39999389648</ele>
        <time>2017-05-25T06:55:12.000Z</time>
      </trkpt>
      <trkpt lat="48.66858" lon="2.12128">
        <ele>163.39999389648</ele>
        <time>2017-05-25T06:55:18.000Z</time>
      </trkpt>
      <trkpt lat="48.66851" lon="2.12099">
        <ele>162.80000305176</ele>
        <time>2017-05-25T06:55:24.000Z</time>
      </trkpt>
      <trkpt lat="48.66844" lon="2.12073">
        <ele>161.80000305176</ele>
        <time>2017-05-25T06:55:30.000Z</time>
      </trkpt>
      <trkpt lat="48.66837" lon="2.12047">
        <ele>161</ele>
        <time>2017-05-25T06:55:35.000Z</time>
      </trkpt>
      <trkpt lat="48.66829" lon="2.12019">
        <ele>159.80000305176</ele>
        <time>2017-05-25T06:55:40.000Z</time>
      </trkpt>
      <trkpt lat="48.66826" lon="2.11987">
        <ele>158.80000305176</ele>
        <time>2017-05-25T06:55:45.000Z</time>
      </trkpt>
      <trkpt lat="48.66825" lon="2.11959">
        <ele>159</ele>
        <time>2017-05-25T06:55:50.000Z</time>
      </trkpt>
      <trkpt lat="48.66831" lon="2.11931">
        <ele>159.19999694824</ele>
        <time>2017-05-25T06:55:55.000Z</time>
      </trkpt>
      <trkpt lat="48.66841" lon="2.11907">
        <ele>159.19999694824</ele>
        <time>2017-05-25T06:56:00.000Z</time>
      </trkpt>
      <trkpt lat="48.6686" lon="2.11893">
        <ele>158.80000305176</ele>
        <time>2017-05-25T06:56:06.000Z</time>
      </trkpt>
      <trkpt lat="48.66879" lon="2.11883">
        <ele>158.39999389648</ele>
        <time>2017-05-25T06:56:11.000Z</time>
      </trkpt>
      <trkpt lat="48.66898" lon="2.11878">
        <ele>158</ele>
        <time>2017-05-25T06:56:16.000Z</time>
      </trkpt>
      <trkpt lat="48.66916" lon="2.11888">
        <ele>157.60000610352</ele>
        <time>2017-05-25T06:56:21.000Z</time>
      </trkpt>
      <trkpt lat="48.66932" lon="2.119">
        <ele>157.19999694824</ele>
        <time>2017-05-25T06:56:26.000Z</time>
      </trkpt>
      <trkpt lat="48.66946" lon="2.11922">
        <ele>157.19999694824</ele>
        <time>2017-05-25T06:56:31.000Z</time>
      </trkpt>
      <trkpt lat="48.66957" lon="2.11945">
        <ele>157.19999694824</ele>
        <time>2017-05-25T06:56:36.000Z</time>
      </trkpt>
      <trkpt lat="48.66967" lon="2.11967">
        <ele>157.39999389648</ele>
        <time>2017-05-25T06:56:41.000Z</time>
      </trkpt>
      <trkpt lat="48.66978" lon="2.11995">
        <ele>157.60000610352</ele>
        <time>2017-05-25T06:56:47.000Z</time>
      </trkpt>
      <trkpt lat="48.66986" lon="2.1202">
        <ele>158.60000610352</ele>
        <time>2017-05-25T06:56:52.000Z</time>
      </trkpt>
      <trkpt lat="48.66988" lon="2.12031">
        <ele>159</ele>
        <time>2017-05-25T06:56:54.000Z</time>
      </trkpt>
      <trkpt lat="48.66982" lon="2.12057">
        <ele>159.39999389648</ele>
        <time>2017-05-25T06:56:59.000Z</time>
      </trkpt>
      <trkpt lat="48.66979" lon="2.12062">
        <ele>159.39999389648</ele>
        <time>2017-05-25T06:57:00.000Z</time>
      </trkpt>
      <trkpt lat="48.66966" lon="2.12084">
        <ele>159.19999694824</ele>
        <time>2017-05-25T06:57:05.000Z</time>
      </trkpt>
      <trkpt lat="48.66953" lon="2.12105">
        <ele>158.80000305176</ele>
        <time>2017-05-25T06:57:10.000Z</time>
      </trkpt>
      <trkpt lat="48.66941" lon="2.12125">
        <ele>158.19999694824</ele>
        <time>2017-05-25T06:57:15.000Z</time>
      </trkpt>
      <trkpt lat="48.66927" lon="2.1213">
        <ele>158.39999389648</ele>
        <time>2017-05-25T06:58:24.000Z</time>
      </trkpt>
      <trkpt lat="48.66912" lon="2.12152">
        <ele>159.80000305176</ele>
        <time>2017-05-25T06:58:31.000Z</time>
      </trkpt>
      <trkpt lat="48.66899" lon="2.12174">
        <ele>161.60000610352</ele>
        <time>2017-05-25T06:58:37.000Z</time>
      </trkpt>
      <trkpt lat="48.66894" lon="2.12181">
        <ele>162.19999694824</ele>
        <time>2017-05-25T06:58:39.000Z</time>
      </trkpt>
      <trkpt lat="48.66883" lon="2.12165">
        <ele>162.60000610352</ele>
        <time>2017-05-25T06:58:44.000Z</time>
      </trkpt>
      <trkpt lat="48.66872" lon="2.12141">
        <ele>162.60000610352</ele>
        <time>2017-05-25T06:58:50.000Z</time>
      </trkpt>
      <trkpt lat="48.66863" lon="2.12115">
        <ele>162.39999389648</ele>
        <time>2017-05-25T06:58:56.000Z</time>
      </trkpt>
      <trkpt lat="48.66853" lon="2.12088">
        <ele>162.39999389648</ele>
        <time>2017-05-25T06:59:02.000Z</time>
      </trkpt>
      <trkpt lat="48.66842" lon="2.12066">
        <ele>161.80000305176</ele>
        <time>2017-05-25T06:59:07.000Z</time>
      </trkpt>
      <trkpt lat="48.66834" lon="2.12037">
        <ele>160.60000610352</ele>
        <time>2017-05-25T06:59:13.000Z</time>
      </trkpt>
      <trkpt lat="48.66829" lon="2.12009">
        <ele>159.39999389648</ele>
        <time>2017-05-25T06:59:18.000Z</time>
      </trkpt>
      <trkpt lat="48.66826" lon="2.1198">
        <ele>158.80000305176</ele>
        <time>2017-05-25T06:59:23.000Z</time>
      </trkpt>
      <trkpt lat="48.66827" lon="2.11951">
        <ele>159.19999694824</ele>
        <time>2017-05-25T06:59:28.000Z</time>
      </trkpt>
      <trkpt lat="48.66833" lon="2.11923">
        <ele>159.39999389648</ele>
        <time>2017-05-25T06:59:33.000Z</time>
      </trkpt>
      <trkpt lat="48.66846" lon="2.11902">
        <ele>159</ele>
        <time>2017-05-25T06:59:38.000Z</time>
      </trkpt>
      <trkpt lat="48.66864" lon="2.11891">
        <ele>158.80000305176</ele>
        <time>2017-05-25T06:59:43.000Z</time>
      </trkpt>
      <trkpt lat="48.66882" lon="2.11884">
        <ele>158.19999694824</ele>
        <time>2017-05-25T06:59:48.000Z</time>
      </trkpt>
      <trkpt lat="48.669" lon="2.1188">
        <ele>157.80000305176</ele>
        <time>2017-05-25T06:59:53.000Z</time>
      </trkpt>
      <trkpt lat="48.66917" lon="2.1189">
        <ele>157.39999389648</ele>
        <time>2017-05-25T06:59:58.000Z</time>
      </trkpt>
      <trkpt lat="48.66935" lon="2.119">
        <ele>157.19999694824</ele>
        <time>2017-05-25T07:00:03.000Z</time>
      </trkpt>
      <trkpt lat="48.66948" lon="2.11921">
        <ele>157.19999694824</ele>
        <time>2017-05-25T07:00:08.000Z</time>
      </trkpt>
      <trkpt lat="48.66958" lon="2.11944">
        <ele>157.19999694824</ele>
        <time>2017-05-25T07:00:13.000Z</time>
      </trkpt>
      <trkpt lat="48.66969" lon="2.1197">
        <ele>157.39999389648</ele>
        <time>2017-05-25T07:00:19.000Z</time>
      </trkpt>
      <trkpt lat="48.66978" lon="2.11998">
        <ele>157.60000610352</ele>
        <time>2017-05-25T07:00:25.000Z</time>
      </trkpt>
      <trkpt lat="48.66986" lon="2.12028">
        <ele>158.80000305176</ele>
        <time>2017-05-25T07:00:31.000Z</time>
      </trkpt>
      <trkpt lat="48.66981" lon="2.12055">
        <ele>159.39999389648</ele>
        <time>2017-05-25T07:00:36.000Z</time>
      </trkpt>
      <trkpt lat="48.66969" lon="2.12077">
        <ele>159.19999694824</ele>
        <time>2017-05-25T07:00:41.000Z</time>
      </trkpt>
      <trkpt lat="48.66956" lon="2.12098">
        <ele>159</ele>
        <time>2017-05-25T07:00:46.000Z</time>
      </trkpt>
      <trkpt lat="48.66947" lon="2.12115">
        <ele>158.60000610352</ele>
        <time>2017-05-25T07:00:50.000Z</time>
      </trkpt>
    </trkseg>
  </trk>
</gpx>